sensor_id;sensor_type;location;lat;lon;timestamp;P1;durP1;ratioP1;P2;durP2;ratioP2
13989;SDS011;7069;52.528;13.316;2022-09-12T00:01:04;2.85;;;2.53;;
13989;SDS011;7069;52.528;13.316;2022-09-12T00:03:32;2.28;;;2.08;;
13989;SDS011;7069;52.528;13.316;2022-09-12T00:05:59;2.70;;;2.50;;
13989;SDS011;7069;52.528;13.316;2022-09-12T00:08:25;2.55;;;2.35;;
13989;SDS011;7069;52.528;13.316;2022-09-12T00:10:52;3.72;;;2.85;;
13989;SDS011;7069;52.528;13.316;2022-09-12T00:13:20;2.45;;;2.25;;
13989;SDS011;7069;52.528;13.316;2022-09-12T00:15:46;3.17;;;2.88;;
13989;SDS011;7069;52.528;13.316;2022-09-12T00:18:13;2.85;;;2.63;;
13989;SDS011;7069;52.528;13.316;2022-09-12T00:20:41;3.50;;;1.83;;
13989;SDS011;7069;52.528;13.316;2022-09-12T00:23:07;2.00;;;1.90;;
13989;SDS011;7069;52.528;13.316;2022-09-12T00:25:39;2.20;;;1.83;;
13989;SDS011;7069;52.528;13.316;2022-09-12T00:28:06;3.72;;;2.50;;
13989;SDS011;7069;52.528;13.316;2022-09-12T00:30:34;1.80;;;1.70;;
13989;SDS011;7069;52.528;13.316;2022-09-12T00:33:05;2.72;;;2.42;;
13989;SDS011;7069;52.528;13.316;2022-09-12T00:35:32;2.80;;;2.60;;
13989;SDS011;7069;52.528;13.316;2022-09-12T00:37:58;2.28;;;2.08;;
13989;SDS011;7069;52.528;13.316;2022-09-12T00:40:25;2.42;;;2.03;;
13989;SDS011;7069;52.528;13.316;2022-09-12T00:42:52;2.47;;;2.28;;
13989;SDS011;7069;52.528;13.316;2022-09-12T00:45:28;2.60;;;2.40;;
13989;SDS011;7069;52.528;13.316;2022-09-12T00:47:57;2.45;;;2.20;;
13989;SDS011;7069;52.528;13.316;2022-09-12T00:50:27;2.85;;;2.65;;
13989;SDS011;7069;52.528;13.316;2022-09-12T00:52:54;3.05;;;2.85;;
13989;SDS011;7069;52.528;13.316;2022-09-12T00:55:23;2.80;;;2.60;;
13989;SDS011;7069;52.528;13.316;2022-09-12T00:57:52;2.55;;;2.35;;
13989;SDS011;7069;52.528;13.316;2022-09-12T01:00:21;2.42;;;2.22;;
13989;SDS011;7069;52.528;13.316;2022-09-12T01:02:50;3.45;;;2.60;;
13989;SDS011;7069;52.528;13.316;2022-09-12T01:05:21;3.10;;;2.80;;
13989;SDS011;7069;52.528;13.316;2022-09-12T01:07:49;2.67;;;2.42;;
13989;SDS011;7069;52.528;13.316;2022-09-12T01:10:16;3.05;;;2.75;;
13989;SDS011;7069;52.528;13.316;2022-09-12T01:12:44;4.55;;;3.00;;
13989;SDS011;7069;52.528;13.316;2022-09-12T01:15:11;4.20;;;2.40;;
13989;SDS011;7069;52.528;13.316;2022-09-12T01:17:40;2.42;;;2.22;;
13989;SDS011;7069;52.528;13.316;2022-09-12T01:20:25;2.60;;;2.40;;
13989;SDS011;7069;52.528;13.316;2022-09-12T01:26:23;3.10;;;2.65;;
13989;SDS011;7069;52.528;13.316;2022-09-12T01:29:03;2.25;;;2.15;;
13989;SDS011;7069;52.528;13.316;2022-09-12T01:31:42;2.40;;;2.20;;
13989;SDS011;7069;52.528;13.316;2022-09-12T01:34:16;4.72;;;2.78;;
13989;SDS011;7069;52.528;13.316;2022-09-12T01:36:47;2.75;;;2.40;;
13989;SDS011;7069;52.528;13.316;2022-09-12T01:39:21;3.15;;;2.85;;
13989;SDS011;7069;52.528;13.316;2022-09-12T01:41:53;2.72;;;2.53;;
13989;SDS011;7069;52.528;13.316;2022-09-12T01:44:28;2.67;;;2.47;;
13989;SDS011;7069;52.528;13.316;2022-09-12T01:47:03;3.30;;;3.00;;
13989;SDS011;7069;52.528;13.316;2022-09-12T01:49:34;3.20;;;2.83;;
13989;SDS011;7069;52.528;13.316;2022-09-12T01:52:03;2.97;;;2.67;;
13989;SDS011;7069;52.528;13.316;2022-09-12T01:54:40;2.75;;;2.55;;
13989;SDS011;7069;52.528;13.316;2022-09-12T01:57:10;3.08;;;2.88;;
13989;SDS011;7069;52.528;13.316;2022-09-12T01:59:39;2.72;;;2.53;;
13989;SDS011;7069;52.528;13.316;2022-09-12T02:02:11;4.30;;;2.90;;
13989;SDS011;7069;52.528;13.316;2022-09-12T02:04:41;2.85;;;2.65;;
13989;SDS011;7069;52.528;13.316;2022-09-12T02:07:12;2.88;;;2.65;;
13989;SDS011;7069;52.528;13.316;2022-09-12T02:09:42;3.10;;;2.90;;
13989;SDS011;7069;52.528;13.316;2022-09-12T02:12:11;3.20;;;2.92;;
13989;SDS011;7069;52.528;13.316;2022-09-12T02:14:41;2.72;;;2.58;;
13989;SDS011;7069;52.528;13.316;2022-09-12T02:17:12;3.20;;;3.00;;
13989;SDS011;7069;52.528;13.316;2022-09-12T02:19:41;2.67;;;2.58;;
13989;SDS011;7069;52.528;13.316;2022-09-12T02:22:10;2.88;;;2.67;;
13989;SDS011;7069;52.528;13.316;2022-09-12T02:24:41;3.15;;;2.95;;
13989;SDS011;7069;52.528;13.316;2022-09-12T02:27:09;3.20;;;2.90;;
13989;SDS011;7069;52.528;13.316;2022-09-12T02:29:39;3.35;;;3.05;;
13989;SDS011;7069;52.528;13.316;2022-09-12T02:32:07;3.47;;;3.28;;
13989;SDS011;7069;52.528;13.316;2022-09-12T02:34:41;2.90;;;2.70;;
13989;SDS011;7069;52.528;13.316;2022-09-12T02:37:15;3.10;;;2.78;;
13989;SDS011;7069;52.528;13.316;2022-09-12T02:39:47;3.00;;;2.80;;
13989;SDS011;7069;52.528;13.316;2022-09-12T02:42:14;3.50;;;3.20;;
13989;SDS011;7069;52.528;13.316;2022-09-12T02:44:40;3.17;;;2.97;;
13989;SDS011;7069;52.528;13.316;2022-09-12T02:47:09;2.80;;;2.60;;
13989;SDS011;7069;52.528;13.316;2022-09-12T02:49:39;4.15;;;3.28;;
13989;SDS011;7069;52.528;13.316;2022-09-12T02:52:06;2.88;;;2.67;;
13989;SDS011;7069;52.528;13.316;2022-09-12T02:54:32;2.92;;;2.72;;
13989;SDS011;7069;52.528;13.316;2022-09-12T02:56:59;3.20;;;2.90;;
13989;SDS011;7069;52.528;13.316;2022-09-12T02:59:26;3.17;;;2.90;;
13989;SDS011;7069;52.528;13.316;2022-09-12T03:04:46;2.85;;;2.63;;
13989;SDS011;7069;52.528;13.316;2022-09-12T03:07:20;3.75;;;3.28;;
13989;SDS011;7069;52.528;13.316;2022-09-12T03:09:53;3.72;;;2.85;;
13989;SDS011;7069;52.528;13.316;2022-09-12T03:12:27;3.78;;;3.40;;
13989;SDS011;7069;52.528;13.316;2022-09-12T03:15:06;3.80;;;3.28;;
13989;SDS011;7069;52.528;13.316;2022-09-12T03:17:41;4.93;;;3.38;;
13989;SDS011;7069;52.528;13.316;2022-09-12T03:20:14;3.13;;;2.92;;
13989;SDS011;7069;52.528;13.316;2022-09-12T03:22:45;3.42;;;3.22;;
13989;SDS011;7069;52.528;13.316;2022-09-12T03:25:17;3.28;;;2.97;;
13989;SDS011;7069;52.528;13.316;2022-09-12T03:27:50;2.97;;;2.78;;
13989;SDS011;7069;52.528;13.316;2022-09-12T03:30:20;2.95;;;2.75;;
13989;SDS011;7069;52.528;13.316;2022-09-12T03:32:48;3.95;;;2.88;;
13989;SDS011;7069;52.528;13.316;2022-09-12T03:35:18;3.38;;;3.08;;
13989;SDS011;7069;52.528;13.316;2022-09-12T03:37:45;3.90;;;2.80;;
13989;SDS011;7069;52.528;13.316;2022-09-12T03:40:12;4.63;;;3.72;;
13989;SDS011;7069;52.528;13.316;2022-09-12T03:42:39;3.78;;;3.47;;
13989;SDS011;7069;52.528;13.316;2022-09-12T03:45:07;3.45;;;3.20;;
13989;SDS011;7069;52.528;13.316;2022-09-12T03:47:34;3.35;;;3.05;;
13989;SDS011;7069;52.528;13.316;2022-09-12T03:50:01;4.05;;;3.45;;
13989;SDS011;7069;52.528;13.316;2022-09-12T03:52:29;3.00;;;2.80;;
13989;SDS011;7069;52.528;13.316;2022-09-12T03:54:55;3.30;;;3.10;;
13989;SDS011;7069;52.528;13.316;2022-09-12T03:57:22;3.60;;;3.30;;
13989;SDS011;7069;52.528;13.316;2022-09-12T03:59:49;3.20;;;3.00;;
13989;SDS011;7069;52.528;13.316;2022-09-12T04:02:15;3.63;;;3.33;;
13989;SDS011;7069;52.528;13.316;2022-09-12T04:04:42;3.20;;;3.00;;
13989;SDS011;7069;52.528;13.316;2022-09-12T04:07:10;4.25;;;3.85;;
13989;SDS011;7069;52.528;13.316;2022-09-12T04:09:38;4.18;;;3.72;;
13989;SDS011;7069;52.528;13.316;2022-09-12T04:12:05;4.32;;;3.65;;
13989;SDS011;7069;52.528;13.316;2022-09-12T04:14:31;5.20;;;3.58;;
13989;SDS011;7069;52.528;13.316;2022-09-12T04:16:58;4.15;;;3.85;;
13989;SDS011;7069;52.528;13.316;2022-09-12T04:19:25;4.15;;;3.75;;
13989;SDS011;7069;52.528;13.316;2022-09-12T04:21:52;4.35;;;4.05;;
13989;SDS011;7069;52.528;13.316;2022-09-12T04:24:18;3.97;;;3.67;;
13989;SDS011;7069;52.528;13.316;2022-09-12T04:26:46;4.22;;;3.83;;
13989;SDS011;7069;52.528;13.316;2022-09-12T04:29:13;4.43;;;3.75;;
13989;SDS011;7069;52.528;13.316;2022-09-12T04:31:40;4.32;;;4.03;;
13989;SDS011;7069;52.528;13.316;2022-09-12T04:34:07;4.40;;;4.00;;
13989;SDS011;7069;52.528;13.316;2022-09-12T04:36:33;4.20;;;3.78;;
13989;SDS011;7069;52.528;13.316;2022-09-12T04:39:00;5.43;;;4.93;;
13989;SDS011;7069;52.528;13.316;2022-09-12T04:41:28;4.35;;;3.83;;
13989;SDS011;7069;52.528;13.316;2022-09-12T04:43:58;4.30;;;4.00;;
13989;SDS011;7069;52.528;13.316;2022-09-12T04:46:26;4.63;;;4.22;;
13989;SDS011;7069;52.528;13.316;2022-09-12T04:48:53;4.60;;;4.20;;
13989;SDS011;7069;52.528;13.316;2022-09-12T04:51:23;5.00;;;4.55;;
13989;SDS011;7069;52.528;13.316;2022-09-12T04:53:52;5.00;;;4.60;;
13989;SDS011;7069;52.528;13.316;2022-09-12T04:56:19;5.63;;;5.22;;
13989;SDS011;7069;52.528;13.316;2022-09-12T04:58:46;5.93;;;4.28;;
13989;SDS011;7069;52.528;13.316;2022-09-12T05:01:15;4.97;;;4.57;;
13989;SDS011;7069;52.528;13.316;2022-09-12T05:03:42;5.38;;;4.57;;
13989;SDS011;7069;52.528;13.316;2022-09-12T05:06:11;4.60;;;4.20;;
13989;SDS011;7069;52.528;13.316;2022-09-12T05:08:38;4.93;;;4.50;;
13989;SDS011;7069;52.528;13.316;2022-09-12T05:11:05;4.70;;;4.30;;
13989;SDS011;7069;52.528;13.316;2022-09-12T05:13:33;5.75;;;4.35;;
13989;SDS011;7069;52.528;13.316;2022-09-12T05:16:00;5.15;;;4.72;;
13989;SDS011;7069;52.528;13.316;2022-09-12T05:18:31;4.68;;;4.28;;
13989;SDS011;7069;52.528;13.316;2022-09-12T05:20:58;5.35;;;4.93;;
13989;SDS011;7069;52.528;13.316;2022-09-12T05:23:25;7.25;;;5.55;;
13989;SDS011;7069;52.528;13.316;2022-09-12T05:25:52;6.05;;;4.68;;
13989;SDS011;7069;52.528;13.316;2022-09-12T05:28:20;4.88;;;4.47;;
13989;SDS011;7069;52.528;13.316;2022-09-12T05:30:47;6.50;;;4.80;;
13989;SDS011;7069;52.528;13.316;2022-09-12T05:33:14;5.05;;;4.65;;
13989;SDS011;7069;52.528;13.316;2022-09-12T05:35:46;6.82;;;5.35;;
13989;SDS011;7069;52.528;13.316;2022-09-12T05:38:16;5.72;;;5.22;;
13989;SDS011;7069;52.528;13.316;2022-09-12T05:40:42;5.28;;;4.82;;
13989;SDS011;7069;52.528;13.316;2022-09-12T05:43:09;5.57;;;4.88;;
13989;SDS011;7069;52.528;13.316;2022-09-12T05:45:36;5.13;;;4.63;;
13989;SDS011;7069;52.528;13.316;2022-09-12T05:48:03;6.60;;;5.53;;
13989;SDS011;7069;52.528;13.316;2022-09-12T05:50:29;9.80;;;5.35;;
13989;SDS011;7069;52.528;13.316;2022-09-12T05:52:58;5.57;;;5.18;;
13989;SDS011;7069;52.528;13.316;2022-09-12T05:55:25;5.72;;;5.22;;
13989;SDS011;7069;52.528;13.316;2022-09-12T05:57:51;6.57;;;6.00;;
13989;SDS011;7069;52.528;13.316;2022-09-12T06:00:18;5.55;;;4.95;;
13989;SDS011;7069;52.528;13.316;2022-09-12T06:02:50;6.15;;;5.15;;
13989;SDS011;7069;52.528;13.316;2022-09-12T06:05:16;6.53;;;5.93;;
13989;SDS011;7069;52.528;13.316;2022-09-12T06:07:44;5.40;;;4.90;;
13989;SDS011;7069;52.528;13.316;2022-09-12T06:10:12;6.72;;;5.78;;
13989;SDS011;7069;52.528;13.316;2022-09-12T06:12:40;12.75;;;6.00;;
13989;SDS011;7069;52.528;13.316;2022-09-12T06:15:08;6.75;;;6.15;;
13989;SDS011;7069;52.528;13.316;2022-09-12T06:17:34;7.10;;;5.88;;
13989;SDS011;7069;52.528;13.316;2022-09-12T06:20:01;6.93;;;6.30;;
13989;SDS011;7069;52.528;13.316;2022-09-12T06:22:29;7.32;;;6.63;;
13989;SDS011;7069;52.528;13.316;2022-09-12T06:24:55;9.23;;;7.65;;
13989;SDS011;7069;52.528;13.316;2022-09-12T06:27:23;7.57;;;6.82;;
13989;SDS011;7069;52.528;13.316;2022-09-12T06:29:50;9.07;;;8.18;;
13989;SDS011;7069;52.528;13.316;2022-09-12T06:32:17;7.50;;;6.72;;
13989;SDS011;7069;52.528;13.316;2022-09-12T06:34:43;7.22;;;6.47;;
13989;SDS011;7069;52.528;13.316;2022-09-12T06:37:11;9.40;;;8.02;;
13989;SDS011;7069;52.528;13.316;2022-09-12T06:39:38;7.88;;;6.75;;
13989;SDS011;7069;52.528;13.316;2022-09-12T06:42:04;7.50;;;6.18;;
13989;SDS011;7069;52.528;13.316;2022-09-12T06:44:33;7.60;;;6.75;;
13989;SDS011;7069;52.528;13.316;2022-09-12T06:46:59;7.35;;;6.65;;
13989;SDS011;7069;52.528;13.316;2022-09-12T06:49:26;8.23;;;7.45;;
13989;SDS011;7069;52.528;13.316;2022-09-12T06:51:53;8.38;;;7.10;;
13989;SDS011;7069;52.528;13.316;2022-09-12T06:54:19;9.07;;;7.28;;
13989;SDS011;7069;52.528;13.316;2022-09-12T06:56:49;7.35;;;6.30;;
13989;SDS011;7069;52.528;13.316;2022-09-12T06:59:18;9.50;;;7.05;;
13989;SDS011;7069;52.528;13.316;2022-09-12T07:01:46;9.00;;;7.10;;
13989;SDS011;7069;52.528;13.316;2022-09-12T07:04:13;7.22;;;6.53;;
13989;SDS011;7069;52.528;13.316;2022-09-12T07:06:40;11.30;;;6.95;;
13989;SDS011;7069;52.528;13.316;2022-09-12T07:09:09;8.15;;;7.15;;
13989;SDS011;7069;52.528;13.316;2022-09-12T07:11:37;8.15;;;5.82;;
13989;SDS011;7069;52.528;13.316;2022-09-12T07:14:05;9.98;;;6.55;;
13989;SDS011;7069;52.528;13.316;2022-09-12T07:16:33;7.93;;;6.95;;
13989;SDS011;7069;52.528;13.316;2022-09-12T07:19:02;8.43;;;7.22;;
13989;SDS011;7069;52.528;13.316;2022-09-12T07:21:29;8.93;;;7.88;;
13989;SDS011;7069;52.528;13.316;2022-09-12T07:23:56;7.55;;;5.90;;
13989;SDS011;7069;52.528;13.316;2022-09-12T07:26:23;6.22;;;5.25;;
13989;SDS011;7069;52.528;13.316;2022-09-12T07:28:53;9.68;;;6.80;;
13989;SDS011;7069;52.528;13.316;2022-09-12T07:31:21;12.45;;;8.20;;
13989;SDS011;7069;52.528;13.316;2022-09-12T07:33:49;11.00;;;8.25;;
13989;SDS011;7069;52.528;13.316;2022-09-12T07:36:18;12.95;;;8.80;;
13989;SDS011;7069;52.528;13.316;2022-09-12T07:38:46;8.80;;;7.70;;
13989;SDS011;7069;52.528;13.316;2022-09-12T07:41:14;7.28;;;6.57;;
13989;SDS011;7069;52.528;13.316;2022-09-12T07:43:43;7.15;;;5.75;;
13989;SDS011;7069;52.528;13.316;2022-09-12T07:46:09;5.53;;;5.03;;
13989;SDS011;7069;52.528;13.316;2022-09-12T07:48:36;6.32;;;5.72;;
13989;SDS011;7069;52.528;13.316;2022-09-12T07:51:04;5.82;;;5.32;;
13989;SDS011;7069;52.528;13.316;2022-09-12T07:53:33;4.82;;;4.43;;
13989;SDS011;7069;52.528;13.316;2022-09-12T07:56:01;6.55;;;5.22;;
13989;SDS011;7069;52.528;13.316;2022-09-12T07:58:29;5.32;;;4.20;;
13989;SDS011;7069;52.528;13.316;2022-09-12T08:01:00;6.72;;;4.53;;
13989;SDS011;7069;52.528;13.316;2022-09-12T08:03:27;4.30;;;4.00;;
13989;SDS011;7069;52.528;13.316;2022-09-12T08:05:54;4.57;;;4.00;;
13989;SDS011;7069;52.528;13.316;2022-09-12T08:08:21;3.83;;;3.53;;
13989;SDS011;7069;52.528;13.316;2022-09-12T08:10:48;3.10;;;2.90;;
13989;SDS011;7069;52.528;13.316;2022-09-12T08:13:15;2.33;;;2.08;;
13989;SDS011;7069;52.528;13.316;2022-09-12T08:15:41;3.20;;;2.90;;
13989;SDS011;7069;52.528;13.316;2022-09-12T08:18:08;2.75;;;2.10;;
13989;SDS011;7069;52.528;13.316;2022-09-12T08:20:35;2.67;;;2.03;;
13989;SDS011;7069;52.528;13.316;2022-09-12T08:23:01;2.08;;;1.48;;
13989;SDS011;7069;52.528;13.316;2022-09-12T08:25:28;2.30;;;1.70;;
13989;SDS011;7069;52.528;13.316;2022-09-12T08:27:56;1.80;;;1.70;;
13989;SDS011;7069;52.528;13.316;2022-09-12T08:30:22;2.50;;;2.30;;
13989;SDS011;7069;52.528;13.316;2022-09-12T08:32:49;1.42;;;1.30;;
13989;SDS011;7069;52.528;13.316;2022-09-12T08:35:15;1.80;;;1.70;;
13989;SDS011;7069;52.528;13.316;2022-09-12T08:37:42;2.53;;;2.33;;
13989;SDS011;7069;52.528;13.316;2022-09-12T08:40:10;2.25;;;1.60;;
13989;SDS011;7069;52.528;13.316;2022-09-12T08:42:44;1.83;;;1.73;;
13989;SDS011;7069;52.528;13.316;2022-09-12T08:45:20;3.13;;;2.08;;
13989;SDS011;7069;52.528;13.316;2022-09-12T08:47:48;6.65;;;1.60;;
13989;SDS011;7069;52.528;13.316;2022-09-12T08:50:16;2.60;;;1.40;;
13989;SDS011;7069;52.528;13.316;2022-09-12T08:52:46;4.90;;;2.00;;
13989;SDS011;7069;52.528;13.316;2022-09-12T08:55:30;4.15;;;1.65;;
13989;SDS011;7069;52.528;13.316;2022-09-12T08:57:58;1.73;;;1.38;;
13989;SDS011;7069;52.528;13.316;2022-09-12T09:00:30;2.72;;;1.10;;
13989;SDS011;7069;52.528;13.316;2022-09-12T09:03:09;2.90;;;1.30;;
13989;SDS011;7069;52.528;13.316;2022-09-12T09:05:48;0.73;;;0.73;;
13989;SDS011;7069;52.528;13.316;2022-09-12T09:08:27;2.80;;;1.15;;
13989;SDS011;7069;52.528;13.316;2022-09-12T09:10:58;2.20;;;1.08;;
13989;SDS011;7069;52.528;13.316;2022-09-12T09:13:34;1.55;;;1.15;;
13989;SDS011;7069;52.528;13.316;2022-09-12T09:16:29;3.97;;;1.75;;
13989;SDS011;7069;52.528;13.316;2022-09-12T09:18:57;1.80;;;1.40;;
13989;SDS011;7069;52.528;13.316;2022-09-12T09:21:27;2.65;;;1.90;;
13989;SDS011;7069;52.528;13.316;2022-09-12T09:23:56;1.95;;;1.25;;
13989;SDS011;7069;52.528;13.316;2022-09-12T09:26:27;2.83;;;1.50;;
13989;SDS011;7069;52.528;13.316;2022-09-12T09:28:57;3.80;;;1.10;;
13989;SDS011;7069;52.528;13.316;2022-09-12T09:31:29;2.92;;;1.80;;
13989;SDS011;7069;52.528;13.316;2022-09-12T09:33:59;3.13;;;1.50;;
13989;SDS011;7069;52.528;13.316;2022-09-12T09:36:29;2.55;;;1.90;;
13989;SDS011;7069;52.528;13.316;2022-09-12T09:39:01;4.55;;;2.20;;
13989;SDS011;7069;52.528;13.316;2022-09-12T09:41:33;1.98;;;1.77;;
13989;SDS011;7069;52.528;13.316;2022-09-12T09:44:07;2.67;;;1.83;;
13989;SDS011;7069;52.528;13.316;2022-09-12T09:46:36;3.63;;;1.90;;
13989;SDS011;7069;52.528;13.316;2022-09-12T09:49:02;2.33;;;1.92;;
13989;SDS011;7069;52.528;13.316;2022-09-12T09:51:32;2.38;;;1.55;;
13989;SDS011;7069;52.528;13.316;2022-09-12T09:54:01;2.70;;;1.63;;
13989;SDS011;7069;52.528;13.316;2022-09-12T09:56:31;2.13;;;1.92;;
13989;SDS011;7069;52.528;13.316;2022-09-12T09:59:07;3.75;;;2.38;;
13989;SDS011;7069;52.528;13.316;2022-09-12T10:01:36;2.60;;;1.67;;
13989;SDS011;7069;52.528;13.316;2022-09-12T10:04:14;4.90;;;1.98;;
13989;SDS011;7069;52.528;13.316;2022-09-12T10:06:43;3.17;;;1.88;;
13989;SDS011;7069;52.528;13.316;2022-09-12T10:09:17;1.08;;;0.98;;
13989;SDS011;7069;52.528;13.316;2022-09-12T10:11:46;2.30;;;1.30;;
13989;SDS011;7069;52.528;13.316;2022-09-12T10:14:31;1.35;;;1.25;;
13989;SDS011;7069;52.528;13.316;2022-09-12T10:17:22;3.10;;;1.40;;
13989;SDS011;7069;52.528;13.316;2022-09-12T10:19:51;1.42;;;1.10;;
13989;SDS011;7069;52.528;13.316;2022-09-12T10:22:19;1.17;;;1.08;;
13989;SDS011;7069;52.528;13.316;2022-09-12T10:24:47;1.95;;;1.05;;
13989;SDS011;7069;52.528;13.316;2022-09-12T10:27:15;1.23;;;0.95;;
13989;SDS011;7069;52.528;13.316;2022-09-12T10:29:45;1.10;;;1.00;;
13989;SDS011;7069;52.528;13.316;2022-09-12T10:32:25;0.75;;;0.75;;
13989;SDS011;7069;52.528;13.316;2022-09-12T10:34:55;1.48;;;0.70;;
13989;SDS011;7069;52.528;13.316;2022-09-12T10:37:26;1.13;;;1.05;;
13989;SDS011;7069;52.528;13.316;2022-09-12T10:39:56;0.80;;;0.80;;
13989;SDS011;7069;52.528;13.316;2022-09-12T10:45:16;1.13;;;0.98;;
13989;SDS011;7069;52.528;13.316;2022-09-12T10:47:50;0.90;;;0.90;;
13989;SDS011;7069;52.528;13.316;2022-09-12T10:50:18;0.63;;;0.63;;
13989;SDS011;7069;52.528;13.316;2022-09-12T10:52:50;1.98;;;1.10;;
13989;SDS011;7069;52.528;13.316;2022-09-12T10:55:16;2.00;;;1.20;;
13989;SDS011;7069;52.528;13.316;2022-09-12T10:57:54;1.40;;;1.20;;
13989;SDS011;7069;52.528;13.316;2022-09-12T11:00:49;0.77;;;0.77;;
13989;SDS011;7069;52.528;13.316;2022-09-12T11:03:22;1.70;;;1.00;;
13989;SDS011;7069;52.528;13.316;2022-09-12T11:05:51;0.82;;;0.82;;
13989;SDS011;7069;52.528;13.316;2022-09-12T11:08:30;0.85;;;0.85;;
13989;SDS011;7069;52.528;13.316;2022-09-12T11:11:15;1.55;;;1.30;;
13989;SDS011;7069;52.528;13.316;2022-09-12T11:13:57;0.93;;;0.90;;
13989;SDS011;7069;52.528;13.316;2022-09-12T11:16:31;2.13;;;0.80;;
13989;SDS011;7069;52.528;13.316;2022-09-12T11:19:08;1.20;;;1.20;;
13989;SDS011;7069;52.528;13.316;2022-09-12T11:21:45;1.67;;;0.98;;
13989;SDS011;7069;52.528;13.316;2022-09-12T11:24:22;1.33;;;1.23;;
13989;SDS011;7069;52.528;13.316;2022-09-12T11:27:00;0.88;;;0.88;;
13989;SDS011;7069;52.528;13.316;2022-09-12T11:29:40;1.00;;;1.00;;
13989;SDS011;7069;52.528;13.316;2022-09-12T11:32:34;0.90;;;0.90;;
13989;SDS011;7069;52.528;13.316;2022-09-12T11:35:23;1.15;;;1.05;;
13989;SDS011;7069;52.528;13.316;2022-09-12T11:41:03;1.13;;;1.10;;
13989;SDS011;7069;52.528;13.316;2022-09-12T11:43:33;1.17;;;1.10;;
13989;SDS011;7069;52.528;13.316;2022-09-12T11:46:05;3.35;;;1.55;;
13989;SDS011;7069;52.528;13.316;2022-09-12T11:48:37;2.10;;;1.60;;
13989;SDS011;7069;52.528;13.316;2022-09-12T11:51:13;1.48;;;1.30;;
13989;SDS011;7069;52.528;13.316;2022-09-12T11:53:43;2.25;;;1.40;;
13989;SDS011;7069;52.528;13.316;2022-09-12T11:56:23;1.35;;;1.25;;
13989;SDS011;7069;52.528;13.316;2022-09-12T11:58:52;1.20;;;1.10;;
13989;SDS011;7069;52.528;13.316;2022-09-12T12:01:22;3.90;;;1.30;;
13989;SDS011;7069;52.528;13.316;2022-09-12T12:03:51;0.98;;;0.90;;
13989;SDS011;7069;52.528;13.316;2022-09-12T12:06:22;1.20;;;1.10;;
13989;SDS011;7069;52.528;13.316;2022-09-12T12:08:50;1.00;;;0.93;;
13989;SDS011;7069;52.528;13.316;2022-09-12T12:11:24;1.70;;;1.27;;
13989;SDS011;7069;52.528;13.316;2022-09-12T12:13:54;1.33;;;1.05;;
13989;SDS011;7069;52.528;13.316;2022-09-12T12:16:23;1.17;;;1.08;;
13989;SDS011;7069;52.528;13.316;2022-09-12T12:18:52;1.10;;;1.00;;
13989;SDS011;7069;52.528;13.316;2022-09-12T12:21:28;0.98;;;0.98;;
13989;SDS011;7069;52.528;13.316;2022-09-12T12:24:09;2.50;;;0.93;;
13989;SDS011;7069;52.528;13.316;2022-09-12T12:26:42;1.13;;;0.90;;
13989;SDS011;7069;52.528;13.316;2022-09-12T12:29:11;2.38;;;1.13;;
13989;SDS011;7069;52.528;13.316;2022-09-12T12:34:38;0.60;;;0.60;;
13989;SDS011;7069;52.528;13.316;2022-09-12T12:40:21;1.00;;;1.00;;
13989;SDS011;7069;52.528;13.316;2022-09-12T12:48:34;1.13;;;0.85;;
13989;SDS011;7069;52.528;13.316;2022-09-12T12:51:15;0.95;;;0.85;;
13989;SDS011;7069;52.528;13.316;2022-09-12T12:53:48;1.25;;;1.15;;
13989;SDS011;7069;52.528;13.316;2022-09-12T12:59:05;1.10;;;1.00;;
13989;SDS011;7069;52.528;13.316;2022-09-12T13:01:42;2.50;;;0.95;;
13989;SDS011;7069;52.528;13.316;2022-09-12T13:04:11;0.95;;;0.90;;
13989;SDS011;7069;52.528;13.316;2022-09-12T13:06:40;3.17;;;0.80;;
13989;SDS011;7069;52.528;13.316;2022-09-12T13:09:17;0.73;;;0.73;;
13989;SDS011;7069;52.528;13.316;2022-09-12T13:11:51;1.02;;;0.70;;
13989;SDS011;7069;52.528;13.316;2022-09-12T13:14:32;1.15;;;1.05;;
13989;SDS011;7069;52.528;13.316;2022-09-12T13:17:01;1.08;;;0.98;;
13989;SDS011;7069;52.528;13.316;2022-09-12T13:19:30;8.18;;;1.58;;
13989;SDS011;7069;52.528;13.316;2022-09-12T13:21:58;1.00;;;0.90;;
13989;SDS011;7069;52.528;13.316;2022-09-12T13:24:26;1.52;;;1.00;;
13989;SDS011;7069;52.528;13.316;2022-09-12T13:26:54;0.80;;;0.80;;
13989;SDS011;7069;52.528;13.316;2022-09-12T13:29:22;0.70;;;0.70;;
13989;SDS011;7069;52.528;13.316;2022-09-12T13:31:50;0.85;;;0.85;;
13989;SDS011;7069;52.528;13.316;2022-09-12T13:34:19;0.80;;;0.80;;
13989;SDS011;7069;52.528;13.316;2022-09-12T13:37:02;1.13;;;1.13;;
13989;SDS011;7069;52.528;13.316;2022-09-12T13:39:42;1.42;;;1.08;;
13989;SDS011;7069;52.528;13.316;2022-09-12T13:42:22;1.50;;;1.10;;
13989;SDS011;7069;52.528;13.316;2022-09-12T13:44:57;1.10;;;0.90;;
13989;SDS011;7069;52.528;13.316;2022-09-12T13:50:02;0.90;;;0.90;;
13989;SDS011;7069;52.528;13.316;2022-09-12T13:52:31;0.80;;;0.80;;
13989;SDS011;7069;52.528;13.316;2022-09-12T13:54:59;1.15;;;1.05;;
13989;SDS011;7069;52.528;13.316;2022-09-12T13:57:32;2.13;;;1.00;;
13989;SDS011;7069;52.528;13.316;2022-09-12T14:00:02;1.30;;;1.20;;
13989;SDS011;7069;52.528;13.316;2022-09-12T14:02:33;1.40;;;1.20;;
13989;SDS011;7069;52.528;13.316;2022-09-12T14:05:10;1.15;;;1.08;;
13989;SDS011;7069;52.528;13.316;2022-09-12T14:07:38;1.05;;;0.80;;
13989;SDS011;7069;52.528;13.316;2022-09-12T14:10:12;1.63;;;1.00;;
13989;SDS011;7069;52.528;13.316;2022-09-12T14:12:43;0.75;;;0.75;;
13989;SDS011;7069;52.528;13.316;2022-09-12T14:15:15;0.95;;;0.85;;
13989;SDS011;7069;52.528;13.316;2022-09-12T14:17:47;1.10;;;1.00;;
13989;SDS011;7069;52.528;13.316;2022-09-12T14:20:16;0.68;;;0.63;;
13989;SDS011;7069;52.528;13.316;2022-09-12T14:22:43;0.85;;;0.80;;
13989;SDS011;7069;52.528;13.316;2022-09-12T14:25:12;1.20;;;1.10;;
13989;SDS011;7069;52.528;13.316;2022-09-12T14:31:01;0.70;;;0.70;;
13989;SDS011;7069;52.528;13.316;2022-09-12T14:33:30;0.90;;;0.90;;
13989;SDS011;7069;52.528;13.316;2022-09-12T14:36:08;0.98;;;0.98;;
13989;SDS011;7069;52.528;13.316;2022-09-12T14:38:37;5.72;;;2.08;;
13989;SDS011;7069;52.528;13.316;2022-09-12T14:41:07;2.65;;;1.60;;
13989;SDS011;7069;52.528;13.316;2022-09-12T14:43:35;1.70;;;1.10;;
13989;SDS011;7069;52.528;13.316;2022-09-12T14:46:05;0.77;;;0.77;;
13989;SDS011;7069;52.528;13.316;2022-09-12T14:48:34;1.40;;;1.30;;
13989;SDS011;7069;52.528;13.316;2022-09-12T14:51:01;1.65;;;1.10;;
13989;SDS011;7069;52.528;13.316;2022-09-12T14:53:32;0.80;;;0.75;;
13989;SDS011;7069;52.528;13.316;2022-09-12T14:56:07;1.88;;;1.33;;
13989;SDS011;7069;52.528;13.316;2022-09-12T14:58:35;1.67;;;1.30;;
13989;SDS011;7069;52.528;13.316;2022-09-12T15:01:02;2.38;;;1.73;;
13989;SDS011;7069;52.528;13.316;2022-09-12T15:03:49;1.20;;;0.88;;
13989;SDS011;7069;52.528;13.316;2022-09-12T15:06:19;1.33;;;1.17;;
13989;SDS011;7069;52.528;13.316;2022-09-12T15:08:47;0.82;;;0.82;;
13989;SDS011;7069;52.528;13.316;2022-09-12T15:11:14;1.48;;;0.90;;
13989;SDS011;7069;52.528;13.316;2022-09-12T15:13:41;2.35;;;0.80;;
13989;SDS011;7069;52.528;13.316;2022-09-12T15:16:08;2.70;;;1.45;;
13989;SDS011;7069;52.528;13.316;2022-09-12T15:18:37;1.33;;;1.10;;
13989;SDS011;7069;52.528;13.316;2022-09-12T15:21:04;4.57;;;1.10;;
13989;SDS011;7069;52.528;13.316;2022-09-12T15:23:36;0.95;;;0.88;;
13989;SDS011;7069;52.528;13.316;2022-09-12T15:26:05;1.48;;;0.95;;
13989;SDS011;7069;52.528;13.316;2022-09-12T15:28:32;1.15;;;1.10;;
13989;SDS011;7069;52.528;13.316;2022-09-12T15:31:02;1.65;;;1.27;;
13989;SDS011;7069;52.528;13.316;2022-09-12T15:33:31;1.20;;;1.10;;
13989;SDS011;7069;52.528;13.316;2022-09-12T15:35:59;1.30;;;1.20;;
13989;SDS011;7069;52.528;13.316;2022-09-12T15:38:25;3.50;;;1.50;;